Structure, Texas
Current Conditions -  °F | °C
As of 12:55 AM on Sunday 26 Oct 2014 (Local Time) from KEDC Reporting Station
Broken Clouds Broken Clouds  
Wind Chill: 18°   Ceiling: 3300
Heat Index: 18°   Visibility: 10mi
Dew Point: 14°   Wind: 5mph
Humidity: 77%   Direction: 200°SSW
Pressure: 30.09"   Gusts: NA
Location:  30.2988°N, 97.3874°W
Report Text: KEDC 260555Z AUTO 20004KT 10SM BKN033 BKN040 18/14 A3009 RMK AO2
Loading
Personal Weather Stations






























Interactive Weather Map
Tropical Storm Tracking
New forecast layout! Learn more

10-Day Weather Forecast

Advertisements
Track Severe Weather on mobile